createdAt,value
2018-05-08T00:02:16.780Z,990.41
2018-05-08T00:03:16.919Z,990.42
2018-05-08T00:04:17.057Z,990.45
2018-05-08T00:05:17.199Z,990.43
2018-05-08T00:06:17.716Z,990.43
2018-05-08T00:07:17.439Z,990.44
2018-05-08T00:08:17.589Z,990.44
2018-05-08T00:09:17.723Z,990.44
2018-05-08T00:10:17.863Z,990.44
2018-05-08T00:11:18.000Z,990.41
2018-05-08T00:12:18.140Z,990.40
2018-05-08T00:13:18.283Z,990.42
2018-05-08T00:14:18.423Z,990.41
2018-05-08T00:15:18.563Z,990.43
2018-05-08T00:16:18.701Z,990.45
2018-05-08T00:17:18.832Z,990.43
2018-05-08T00:18:18.980Z,990.37
2018-05-08T00:19:19.117Z,990.42
2018-05-08T00:20:19.256Z,990.42
2018-05-08T00:21:19.393Z,990.38
2018-05-08T00:22:19.532Z,990.38
2018-05-08T00:23:19.703Z,990.33
2018-05-08T00:24:19.844Z,990.34
2018-05-08T00:25:19.981Z,990.34
2018-05-08T00:26:20.136Z,990.32
2018-05-08T00:27:20.284Z,990.31
2018-05-08T00:28:20.411Z,990.30
2018-05-08T00:29:20.546Z,990.29
2018-05-08T00:30:20.688Z,990.29
2018-05-08T00:31:20.886Z,990.27
2018-05-08T00:32:20.959Z,990.25
2018-05-08T00:33:21.086Z,990.24
2018-05-08T00:34:21.223Z,990.28
2018-05-08T00:35:21.366Z,990.24
2018-05-08T00:36:21.493Z,990.21
2018-05-08T00:37:21.631Z,990.19
2018-05-08T00:38:21.784Z,990.19
2018-05-08T00:39:21.962Z,990.17
2018-05-08T00:40:22.115Z,990.13
2018-05-08T00:41:22.369Z,990.13
2018-05-08T00:42:22.403Z,990.13
2018-05-08T00:43:22.541Z,990.11
2018-05-08T00:44:22.692Z,990.10
2018-05-08T00:45:22.843Z,990.14
2018-05-08T00:46:22.965Z,990.09
2018-05-08T00:47:23.115Z,990.10
2018-05-08T00:48:23.243Z,990.11
2018-05-08T00:49:23.379Z,990.05
2018-05-08T00:50:23.529Z,990.06
2018-05-08T00:51:23.664Z,990.11
2018-05-08T00:52:23.813Z,990.03
2018-05-08T00:53:23.951Z,990.05
2018-05-08T00:54:24.110Z,990.09
2018-05-08T00:55:24.250Z,990.05
2018-05-08T00:56:24.384Z,990.05
2018-05-08T00:57:24.549Z,989.99
2018-05-08T00:58:24.683Z,989.99
2018-05-08T00:59:24.827Z,990.03
2018-05-08T01:00:24.960Z,989.99
2018-05-08T01:01:25.102Z,989.99
2018-05-08T01:02:25.279Z,989.98
2018-05-08T01:03:25.384Z,990.00
2018-05-08T01:04:25.521Z,989.98
2018-05-08T01:05:25.684Z,989.97
2018-05-08T01:06:26.590Z,989.98
2018-05-08T01:07:26.040Z,989.97
2018-05-08T01:08:26.160Z,990.00
2018-05-08T01:09:27.101Z,990.00
2018-05-08T01:10:26.515Z,989.97
2018-05-08T01:11:26.645Z,989.97
2018-05-08T01:12:26.837Z,989.98
2018-05-08T01:13:26.942Z,989.99
2018-05-08T01:14:27.077Z,989.99
2018-05-08T01:15:27.216Z,989.94
2018-05-08T01:16:27.354Z,989.96
2018-05-08T01:17:27.538Z,989.94
2018-05-08T01:18:27.653Z,989.97
2018-05-08T01:19:27.787Z,989.93
2018-05-08T01:20:27.913Z,989.95
2018-05-08T01:21:28.060Z,989.95
2018-05-08T01:22:28.205Z,989.95
2018-05-08T01:23:28.338Z,989.94
2018-05-08T01:24:29.022Z,990.00
2018-05-08T01:25:28.689Z,989.96
2018-05-08T01:26:28.828Z,989.97
2018-05-08T01:27:28.973Z,989.97
2018-05-08T01:28:29.108Z,989.94
2018-05-08T01:29:29.243Z,989.96
2018-05-08T01:30:29.376Z,989.97
2018-05-08T01:31:29.561Z,989.98
2018-05-08T01:32:29.652Z,989.97
2018-05-08T01:33:29.788Z,989.98
2018-05-08T01:34:29.933Z,989.97
2018-05-08T01:35:30.074Z,989.95
2018-05-08T01:36:30.217Z,989.94
2018-05-08T01:37:30.360Z,989.98
2018-05-08T01:38:30.495Z,989.91
2018-05-08T01:39:30.633Z,989.93
2018-05-08T01:40:30.773Z,989.94
2018-05-08T01:41:30.910Z,989.91
2018-05-08T01:42:31.049Z,989.90
2018-05-08T01:43:31.189Z,989.91
2018-05-08T01:44:31.333Z,989.93
2018-05-08T01:45:31.471Z,989.95
2018-05-08T01:46:31.605Z,989.91
2018-05-08T01:47:31.750Z,989.95
2018-05-08T01:48:31.888Z,989.93
2018-05-08T01:49:32.024Z,989.93
2018-05-08T01:50:32.163Z,989.90
2018-05-08T01:51:32.297Z,989.92
2018-05-08T01:52:32.435Z,989.93
2018-05-08T01:53:32.577Z,989.94
2018-05-08T01:54:32.713Z,989.95
2018-05-08T01:55:32.852Z,989.94
2018-05-08T01:56:32.990Z,989.94
2018-05-08T01:57:33.121Z,989.91
2018-05-08T01:58:33.278Z,989.88
2018-05-08T01:59:33.414Z,989.90
2018-05-08T02:00:33.572Z,989.86
2018-05-08T02:01:33.712Z,989.88
2018-05-08T02:02:33.853Z,989.85
2018-05-08T02:03:33.991Z,989.86
2018-05-08T02:04:34.142Z,989.88
2018-05-08T02:05:35.048Z,989.86
2018-05-08T02:06:34.456Z,989.88
2018-05-08T02:07:34.638Z,989.88
2018-05-08T02:08:34.759Z,989.84
2018-05-08T02:09:35.561Z,989.84
2018-05-08T02:10:34.991Z,989.88
2018-05-08T02:11:35.128Z,989.89
2018-05-08T02:12:35.260Z,989.86
2018-05-08T02:13:35.418Z,989.87
2018-05-08T02:14:35.566Z,989.90
2018-05-08T02:15:35.707Z,989.86
2018-05-08T02:16:35.858Z,989.85
2018-05-08T02:17:36.059Z,989.85
2018-05-08T02:18:36.069Z,989.82
2018-05-08T02:19:36.201Z,989.81
2018-05-08T02:20:36.382Z,989.80
2018-05-08T02:21:36.503Z,989.79
2018-05-08T02:22:36.643Z,989.83
2018-05-08T02:23:36.780Z,989.79
2018-05-08T02:24:36.938Z,989.84
2018-05-08T02:25:37.066Z,989.84
2018-05-08T02:26:37.203Z,989.81
2018-05-08T02:27:37.375Z,989.82
2018-05-08T02:28:37.470Z,989.80
2018-05-08T02:29:37.609Z,989.78
2018-05-08T02:30:37.768Z,989.79
2018-05-08T02:31:37.905Z,989.73
2018-05-08T02:32:38.044Z,989.80
2018-05-08T02:33:38.206Z,989.81
2018-05-08T02:34:38.344Z,989.78
2018-05-08T02:35:38.481Z,989.76
2018-05-08T02:36:38.618Z,989.74
2018-05-08T02:37:38.758Z,989.75
2018-05-08T02:38:38.889Z,989.75
2018-05-08T02:39:39.030Z,989.71
2018-05-08T02:40:39.165Z,989.74
2018-05-08T02:41:39.309Z,989.72
2018-05-08T02:42:39.445Z,989.72
2018-05-08T02:43:39.584Z,989.70
2018-05-08T02:44:39.715Z,989.69
2018-05-08T02:45:39.855Z,989.66
2018-05-08T02:46:39.995Z,989.69
2018-05-08T02:47:40.130Z,989.66
2018-05-08T02:48:40.275Z,989.61
2018-05-08T02:49:40.442Z,989.63
2018-05-08T02:50:40.660Z,989.62
2018-05-08T02:51:40.717Z,989.62
2018-05-08T02:52:40.856Z,989.61
2018-05-08T02:53:41.004Z,989.62
2018-05-08T02:54:41.126Z,989.60
2018-05-08T02:55:41.267Z,989.59
2018-05-08T02:56:41.402Z,989.59
2018-05-08T02:57:41.540Z,989.57
2018-05-08T02:58:41.691Z,989.60
2018-05-08T02:59:41.825Z,989.60
2018-05-08T03:00:41.960Z,989.63
2018-05-08T03:01:42.101Z,989.62
2018-05-08T03:02:42.233Z,989.61
2018-05-08T03:03:42.371Z,989.59
2018-05-08T03:04:42.510Z,989.56
2018-05-08T03:05:42.652Z,989.56
2018-05-08T03:06:42.791Z,989.57
2018-05-08T03:07:42.964Z,989.56
2018-05-08T03:08:43.090Z,989.53
2018-05-08T03:09:43.230Z,989.54
2018-05-08T03:10:43.372Z,989.55
2018-05-08T03:11:43.530Z,989.55
2018-05-08T03:12:43.664Z,989.55
2018-05-08T03:13:43.805Z,989.53
2018-05-08T03:14:43.944Z,989.51
2018-05-08T03:15:44.097Z,989.52
2018-05-08T03:16:44.232Z,989.54
2018-05-08T03:17:44.369Z,989.51
2018-05-08T03:18:44.589Z,989.51
2018-05-08T03:19:44.664Z,989.53
2018-05-08T03:20:44.808Z,989.53
2018-05-08T03:21:44.945Z,989.52
2018-05-08T03:22:45.082Z,989.52
2018-05-08T03:23:45.216Z,989.54
2018-05-08T03:24:45.430Z,989.57
2018-05-08T03:25:45.517Z,989.58
2018-05-08T03:26:45.653Z,989.60
2018-05-08T03:27:45.814Z,989.57
2018-05-08T03:28:45.946Z,989.53
2018-05-08T03:29:46.107Z,989.55
2018-05-08T03:30:46.226Z,989.52
2018-05-08T03:31:46.414Z,989.51
2018-05-08T03:32:46.495Z,989.49
2018-05-08T03:33:46.627Z,989.52
2018-05-08T03:34:46.771Z,989.55
2018-05-08T03:35:46.928Z,989.49
2018-05-08T03:36:47.072Z,989.54
2018-05-08T03:37:47.202Z,989.55
2018-05-08T03:38:47.340Z,989.54
2018-05-08T03:39:47.521Z,989.54
2018-05-08T03:40:47.635Z,989.57
2018-05-08T03:41:47.777Z,989.56
2018-05-08T03:42:47.918Z,989.51
2018-05-08T03:43:48.070Z,989.52
2018-05-08T03:44:48.312Z,989.52
2018-05-08T03:45:48.336Z,989.55
2018-05-08T03:46:48.473Z,989.54
2018-05-08T03:47:48.614Z,989.57
2018-05-08T03:48:48.751Z,989.56
2018-05-08T03:49:48.897Z,989.55
2018-05-08T03:50:49.034Z,989.53
2018-05-08T03:51:49.168Z,989.52
2018-05-08T03:52:49.308Z,989.53
2018-05-08T03:53:49.446Z,989.53
2018-05-08T03:54:50.070Z,989.57
2018-05-08T03:55:49.736Z,989.54
2018-05-08T03:56:49.876Z,989.50
2018-05-08T03:57:50.016Z,989.48
2018-05-08T03:58:50.148Z,989.50
2018-05-08T03:59:50.294Z,989.51
2018-05-08T04:00:50.429Z,989.50
2018-05-08T04:01:50.566Z,989.49
2018-05-08T04:02:50.699Z,989.46
2018-05-08T04:03:50.852Z,989.48
2018-05-08T04:04:50.981Z,989.44
2018-05-08T04:05:51.112Z,989.45
2018-05-08T04:06:51.252Z,989.50
2018-05-08T04:07:51.394Z,989.48
2018-05-08T04:08:51.530Z,989.45
2018-05-08T04:09:51.686Z,989.46
2018-05-08T04:10:51.817Z,989.45
2018-05-08T04:11:51.954Z,989.45
2018-05-08T04:12:52.098Z,989.46
2018-05-08T04:13:52.237Z,989.44
2018-05-08T04:14:52.370Z,989.46
2018-05-08T04:15:52.506Z,989.44
2018-05-08T04:16:52.635Z,989.43
2018-05-08T04:17:52.805Z,989.42
2018-05-08T04:18:52.929Z,989.44
2018-05-08T04:19:53.063Z,989.43
2018-05-08T04:20:53.200Z,989.41
2018-05-08T04:21:53.338Z,989.45
2018-05-08T04:22:53.470Z,989.41
2018-05-08T04:23:53.610Z,989.44
2018-05-08T04:24:53.756Z,989.41
2018-05-08T04:25:53.888Z,989.41
2018-05-08T04:26:54.066Z,989.38
2018-05-08T04:27:54.199Z,989.38
2018-05-08T04:28:54.338Z,989.37
2018-05-08T04:29:54.469Z,989.41
2018-05-08T04:30:54.605Z,989.38
2018-05-08T04:31:54.746Z,989.35
2018-05-08T04:32:54.887Z,989.36
2018-05-08T04:33:55.024Z,989.33
2018-05-08T04:34:55.168Z,989.31
2018-05-08T04:35:55.319Z,989.33
2018-05-08T04:36:55.452Z,989.33
2018-05-08T04:37:55.597Z,989.34
2018-05-08T04:38:55.768Z,989.32
2018-05-08T04:39:55.895Z,989.35
2018-05-08T04:40:56.033Z,989.31
2018-05-08T04:41:56.165Z,989.32
2018-05-08T04:42:56.335Z,989.31
2018-05-08T04:43:56.465Z,989.32
2018-05-08T04:44:56.600Z,989.35
2018-05-08T04:45:56.740Z,989.30
2018-05-08T04:46:56.888Z,989.32
2018-05-08T04:47:57.018Z,989.32
2018-05-08T04:48:57.157Z,989.33
2018-05-08T04:49:57.310Z,989.33
2018-05-08T04:50:57.437Z,989.34
2018-05-08T04:51:57.573Z,989.36
2018-05-08T04:52:57.735Z,989.32
2018-05-08T04:53:57.873Z,989.34
2018-05-08T04:54:58.011Z,989.38
2018-05-08T04:55:58.251Z,989.34
2018-05-08T04:56:58.318Z,989.36
2018-05-08T04:57:58.456Z,989.33
2018-05-08T04:58:58.596Z,989.32
2018-05-08T04:59:58.735Z,989.34
2018-05-08T05:00:58.875Z,989.35
2018-05-08T05:01:59.017Z,989.33
2018-05-08T05:02:59.149Z,989.36
2018-05-08T05:03:59.285Z,989.33
2018-05-08T05:04:59.425Z,989.33
2018-05-08T05:05:59.575Z,989.30
2018-05-08T05:06:59.758Z,989.33
2018-05-08T05:07:59.842Z,989.32
2018-05-08T05:08:59.984Z,989.23
2018-05-08T05:10:00.118Z,989.26
2018-05-08T05:11:00.309Z,989.26
2018-05-08T05:12:00.394Z,989.26
2018-05-08T05:13:00.531Z,989.24
2018-05-08T05:14:00.667Z,989.23
2018-05-08T05:15:00.804Z,989.20
2018-05-08T05:16:00.942Z,989.18
2018-05-08T05:17:01.081Z,989.21
2018-05-08T05:18:01.215Z,989.21
2018-05-08T05:19:01.354Z,989.20
2018-05-08T05:20:01.493Z,989.21
2018-05-08T05:21:01.629Z,989.21
2018-05-08T05:22:01.769Z,989.17
2018-05-08T05:23:01.919Z,989.23
2018-05-08T05:24:02.055Z,989.22
2018-05-08T05:25:02.199Z,989.21
2018-05-08T05:26:02.338Z,989.19
2018-05-08T05:27:02.477Z,989.17
2018-05-08T05:28:02.621Z,989.19
2018-05-08T05:29:02.761Z,989.20
2018-05-08T05:30:02.896Z,989.17
2018-05-08T05:31:03.034Z,989.18
2018-05-08T05:32:03.173Z,989.18
2018-05-08T05:33:03.316Z,989.18
2018-05-08T05:34:03.449Z,989.16
2018-05-08T05:35:03.594Z,989.16
2018-05-08T05:36:03.792Z,989.13
2018-05-08T05:37:03.804Z,989.13
2018-05-08T05:38:03.935Z,989.17
2018-05-08T05:39:04.075Z,989.16
2018-05-08T05:40:04.242Z,989.15
2018-05-08T05:41:04.378Z,989.15
2018-05-08T05:42:04.513Z,989.16
2018-05-08T05:43:04.661Z,989.16
2018-05-08T05:44:04.814Z,989.19
2018-05-08T05:45:04.958Z,989.16
2018-05-08T05:46:05.094Z,989.18
2018-05-08T05:47:05.259Z,989.18
2018-05-08T05:48:05.386Z,989.19
2018-05-08T05:49:05.528Z,989.14
2018-05-08T05:50:05.668Z,989.12
2018-05-08T05:51:05.840Z,989.13
2018-05-08T05:52:05.941Z,989.13
2018-05-08T05:53:06.081Z,989.12
2018-05-08T05:54:06.217Z,989.13
2018-05-08T05:55:06.398Z,989.09
2018-05-08T05:56:06.531Z,989.09
2018-05-08T05:57:06.676Z,989.07
2018-05-08T05:58:06.815Z,989.06
2018-05-08T05:59:06.962Z,989.10
2018-05-08T06:00:07.136Z,989.06
2018-05-08T06:01:07.241Z,989.06
2018-05-08T06:02:07.386Z,989.05
2018-05-08T06:03:07.510Z,988.99
2018-05-08T06:04:07.650Z,989.03
2018-05-08T06:05:07.777Z,989.02
2018-05-08T06:06:07.914Z,988.99
2018-05-08T06:07:08.056Z,989.01
2018-05-08T06:08:08.221Z,989.01
2018-05-08T06:09:08.361Z,988.96
2018-05-08T06:10:08.478Z,988.94
2018-05-08T06:11:08.634Z,988.90
2018-05-08T06:12:08.826Z,988.88
2018-05-08T06:13:08.932Z,988.88
2018-05-08T06:14:09.083Z,988.90
2018-05-08T06:15:09.207Z,988.85
2018-05-08T06:16:09.345Z,988.86
2018-05-08T06:17:09.484Z,988.79
2018-05-08T06:18:09.645Z,988.81
2018-05-08T06:19:09.771Z,988.80
2018-05-08T06:20:09.907Z,988.82
2018-05-08T06:21:10.057Z,988.83
2018-05-08T06:22:10.243Z,988.87
2018-05-08T06:23:10.357Z,988.85
2018-05-08T06:24:10.496Z,988.88
2018-05-08T06:25:10.627Z,988.88
2018-05-08T06:26:10.771Z,988.87
2018-05-08T06:27:10.910Z,988.85
2018-05-08T06:28:11.060Z,988.83
2018-05-08T06:29:11.195Z,988.84
2018-05-08T06:30:11.340Z,988.85
2018-05-08T06:31:11.475Z,988.85
2018-05-08T06:32:11.617Z,988.82
2018-05-08T06:33:11.753Z,988.84
2018-05-08T06:34:11.895Z,988.85
2018-05-08T06:35:12.032Z,988.82
2018-05-08T06:36:12.169Z,988.80
2018-05-08T06:37:12.301Z,988.81
2018-05-08T06:38:12.443Z,988.79
2018-05-08T06:39:12.585Z,988.76
2018-05-08T06:40:12.719Z,988.81
2018-05-08T06:41:12.862Z,988.80
2018-05-08T06:42:12.994Z,988.78
2018-05-08T06:43:13.136Z,988.76
2018-05-08T06:44:13.364Z,988.77
2018-05-08T06:45:13.496Z,988.77
2018-05-08T06:46:13.548Z,988.74
2018-05-08T06:47:13.688Z,988.71
2018-05-08T06:48:13.836Z,988.74
2018-05-08T06:49:13.975Z,988.74
2018-05-08T06:50:14.148Z,988.73
2018-05-08T06:51:14.326Z,988.69
2018-05-08T06:52:14.460Z,988.72
2018-05-08T06:53:14.603Z,988.67
2018-05-08T06:54:14.753Z,988.71
2018-05-08T06:55:14.903Z,988.69
2018-05-08T06:56:15.039Z,988.67
2018-05-08T06:57:15.181Z,988.63
2018-05-08T06:58:15.318Z,988.61
2018-05-08T06:59:15.467Z,988.65
2018-05-08T07:00:15.602Z,988.66
2018-05-08T07:01:15.745Z,988.67
2018-05-08T07:02:15.895Z,988.60
2018-05-08T07:03:16.100Z,988.58
2018-05-08T07:04:16.117Z,988.60
2018-05-08T07:05:16.258Z,988.61
2018-05-08T07:06:16.426Z,988.58
2018-05-08T07:07:16.565Z,988.59
2018-05-08T07:08:16.709Z,988.63
2018-05-08T07:09:16.858Z,988.65
2018-05-08T07:10:17.031Z,988.64
2018-05-08T07:11:17.134Z,988.63
2018-05-08T07:12:17.275Z,988.66
2018-05-08T07:13:17.415Z,988.68
2018-05-08T07:14:17.567Z,988.62
2018-05-08T07:15:17.708Z,988.62
2018-05-08T07:16:17.982Z,988.61
2018-05-08T07:17:17.994Z,988.61
2018-05-08T07:18:18.130Z,988.63
2018-05-08T07:19:18.287Z,988.59
2018-05-08T07:20:18.423Z,988.62
2018-05-08T07:21:18.566Z,988.58
2018-05-08T07:22:18.702Z,988.54
2018-05-08T07:23:18.868Z,988.53
2018-05-08T07:24:19.016Z,988.53
2018-05-08T07:25:19.154Z,988.50
2018-05-08T07:26:19.294Z,988.46
2018-05-08T07:27:19.461Z,988.49
2018-05-08T07:28:19.600Z,988.48
2018-05-08T07:29:19.740Z,988.50
2018-05-08T07:30:19.879Z,988.52
2018-05-08T07:31:20.035Z,988.52
2018-05-08T07:32:20.169Z,988.48
2018-05-08T07:33:20.305Z,988.52
2018-05-08T07:34:20.442Z,988.52
2018-05-08T07:35:20.593Z,988.51
2018-05-08T07:36:20.735Z,988.53
2018-05-08T07:37:20.880Z,988.50
2018-05-08T07:38:21.143Z,988.49
2018-05-08T07:39:21.167Z,988.53
2018-05-08T07:40:21.311Z,988.52
2018-05-08T07:41:21.455Z,988.52
2018-05-08T07:42:21.598Z,988.50
2018-05-08T07:43:21.741Z,988.50
2018-05-08T07:44:21.890Z,988.53
2018-05-08T07:45:22.053Z,988.51
2018-05-08T07:46:22.173Z,988.49
2018-05-08T07:47:22.317Z,988.47
2018-05-08T07:48:22.454Z,988.46
2018-05-08T07:49:22.597Z,988.40
2018-05-08T07:50:22.753Z,988.43
2018-05-08T07:51:22.892Z,988.39
2018-05-08T07:52:23.048Z,988.42
2018-05-08T07:53:23.183Z,988.41
2018-05-08T07:54:23.322Z,988.42
2018-05-08T07:55:23.463Z,988.40
2018-05-08T07:56:23.601Z,988.41
2018-05-08T07:57:23.737Z,988.35
2018-05-08T07:58:23.886Z,988.36
2018-05-08T07:59:24.024Z,988.35
2018-05-08T08:00:24.175Z,988.37
2018-05-08T08:01:24.310Z,988.41
2018-05-08T08:02:24.457Z,988.40
2018-05-08T08:03:24.642Z,988.34
2018-05-08T08:04:24.734Z,988.36
2018-05-08T08:05:24.873Z,988.33
2018-05-08T08:06:25.024Z,988.37
2018-05-08T08:07:25.205Z,988.33
2018-05-08T08:08:25.302Z,988.31
2018-05-08T08:09:25.445Z,988.26
2018-05-08T08:10:25.591Z,988.30
2018-05-08T08:11:25.736Z,988.30
2018-05-08T08:12:25.889Z,988.23
2018-05-08T08:13:26.012Z,988.26
2018-05-08T08:14:26.236Z,988.27
2018-05-08T08:15:26.249Z,988.25
2018-05-08T08:16:26.393Z,988.30
2018-05-08T08:17:26.532Z,988.29
2018-05-08T08:18:26.736Z,988.24
2018-05-08T08:19:26.832Z,988.24
2018-05-08T08:20:26.965Z,988.23
2018-05-08T08:21:27.107Z,988.22
2018-05-08T08:22:27.276Z,988.24
2018-05-08T08:23:27.413Z,988.21
2018-05-08T08:24:27.554Z,988.21
2018-05-08T08:25:27.698Z,988.23
2018-05-08T08:26:27.862Z,988.20
2018-05-08T08:27:28.001Z,988.20
2018-05-08T08:28:28.144Z,988.21
2018-05-08T08:29:28.301Z,988.21
2018-05-08T08:30:28.438Z,988.17
2018-05-08T08:31:28.579Z,988.21
2018-05-08T08:32:28.735Z,988.18
2018-05-08T08:33:28.864Z,988.17
2018-05-08T08:34:29.002Z,988.16
2018-05-08T08:35:29.173Z,988.12
2018-05-08T08:36:29.305Z,988.06
2018-05-08T08:37:29.446Z,988.07
2018-05-08T08:38:29.582Z,988.10
2018-05-08T08:39:29.763Z,988.10
2018-05-08T08:40:29.895Z,988.11
2018-05-08T08:41:30.035Z,988.06
2018-05-08T08:42:30.172Z,988.04
2018-05-08T08:43:30.322Z,988.01
2018-05-08T08:44:30.462Z,988.01
2018-05-08T08:45:30.602Z,987.99
2018-05-08T08:46:30.776Z,987.97
2018-05-08T08:47:30.910Z,987.98
2018-05-08T08:48:31.040Z,987.95
2018-05-08T08:49:31.181Z,987.89
2018-05-08T08:50:31.309Z,987.88
2018-05-08T08:51:31.451Z,987.89
2018-05-08T08:52:31.589Z,987.91
2018-05-08T08:53:31.757Z,987.94
2018-05-08T08:54:31.898Z,987.91
2018-05-08T08:55:32.041Z,987.89
2018-05-08T08:56:32.182Z,987.86
2018-05-08T08:57:32.317Z,987.90
2018-05-08T08:58:32.461Z,987.94
2018-05-08T08:59:32.602Z,987.90
2018-05-08T09:00:32.755Z,987.85
2018-05-08T09:01:32.888Z,987.87
2018-05-08T09:02:33.033Z,987.90
2018-05-08T09:03:33.191Z,987.91
2018-05-08T09:04:33.331Z,987.85
2018-05-08T09:05:33.475Z,987.85
2018-05-08T09:06:33.631Z,987.86
2018-05-08T09:07:33.779Z,987.82
2018-05-08T09:08:33.924Z,987.73
2018-05-08T09:09:34.079Z,987.79
2018-05-08T09:10:34.222Z,987.77
2018-05-08T09:11:34.382Z,987.81
2018-05-08T09:12:34.506Z,987.76
2018-05-08T09:13:34.657Z,987.72
2018-05-08T09:14:34.796Z,987.78
2018-05-08T09:15:34.935Z,987.72
2018-05-08T09:16:35.072Z,987.76
2018-05-08T09:17:35.214Z,987.68
2018-05-08T09:18:35.355Z,987.74
2018-05-08T09:19:35.499Z,987.71
2018-05-08T09:20:35.633Z,987.69
2018-05-08T09:21:35.770Z,987.66
2018-05-08T09:22:35.917Z,987.63
2018-05-08T09:23:36.052Z,987.62
2018-05-08T09:24:36.192Z,987.63
2018-05-08T09:25:36.916Z,987.62
2018-05-08T09:26:36.459Z,987.63
2018-05-08T09:27:36.693Z,987.58
2018-05-08T09:28:36.745Z,987.64
2018-05-08T09:29:36.885Z,987.60
2018-05-08T09:30:37.030Z,987.57
2018-05-08T09:31:37.176Z,987.52
2018-05-08T09:32:37.320Z,987.51
2018-05-08T09:33:37.464Z,987.52
2018-05-08T09:34:37.606Z,987.49
2018-05-08T09:35:37.754Z,987.52
2018-05-08T09:36:37.892Z,987.52
2018-05-08T09:37:38.043Z,987.49
2018-05-08T09:38:38.185Z,987.47
2018-05-08T09:39:38.328Z,987.47
2018-05-08T09:40:38.470Z,987.42
2018-05-08T09:41:38.630Z,987.45
2018-05-08T09:42:38.769Z,987.42
2018-05-08T09:43:38.906Z,987.44
2018-05-08T09:44:39.048Z,987.45
2018-05-08T09:45:39.188Z,987.44
2018-05-08T09:46:39.339Z,987.44
2018-05-08T09:47:39.491Z,987.41
2018-05-08T09:48:39.634Z,987.35
2018-05-08T09:49:39.761Z,987.35
2018-05-08T09:50:39.900Z,987.28
2018-05-08T09:51:40.043Z,987.27
2018-05-08T09:52:40.181Z,987.30
2018-05-08T09:53:40.323Z,987.33
2018-05-08T09:54:40.471Z,987.31
2018-05-08T09:55:40.609Z,987.29
2018-05-08T09:56:40.760Z,987.30
2018-05-08T09:57:40.896Z,987.26
2018-05-08T09:58:41.037Z,987.34
2018-05-08T09:59:41.186Z,987.32
2018-05-08T10:00:41.333Z,987.23
2018-05-08T10:01:41.478Z,987.28
2018-05-08T10:02:41.617Z,987.25
2018-05-08T10:03:41.777Z,987.21
2018-05-08T10:04:41.906Z,987.20
2018-05-08T10:05:42.050Z,987.22
2018-05-08T10:06:42.272Z,987.23
2018-05-08T10:07:42.348Z,987.17
2018-05-08T10:08:42.492Z,987.22
2018-05-08T10:09:42.635Z,987.24
2018-05-08T10:10:42.772Z,987.24
2018-05-08T10:11:42.951Z,987.24
2018-05-08T10:12:43.075Z,987.26
2018-05-08T10:13:43.211Z,987.17
2018-05-08T10:14:43.356Z,987.13
2018-05-08T10:15:43.505Z,987.19
2018-05-08T10:16:43.642Z,987.19
2018-05-08T10:17:43.781Z,987.12
2018-05-08T10:18:43.922Z,987.16
2018-05-08T10:19:44.116Z,987.14
2018-05-08T10:20:44.272Z,987.13
2018-05-08T10:21:44.374Z,987.19
2018-05-08T10:22:44.518Z,987.09
2018-05-08T10:23:44.673Z,987.11
2018-05-08T10:24:44.810Z,987.08
2018-05-08T10:25:44.951Z,987.06
2018-05-08T10:26:45.116Z,987.04
2018-05-08T10:27:45.272Z,987.07
2018-05-08T10:28:45.414Z,987.04
2018-05-08T10:29:45.568Z,986.96
2018-05-08T10:30:45.700Z,987.01
2018-05-08T10:31:45.867Z,986.97
2018-05-08T10:32:46.000Z,986.91
2018-05-08T10:33:46.146Z,986.88
2018-05-08T10:34:46.318Z,986.90
2018-05-08T10:35:46.457Z,986.94
2018-05-08T10:36:46.600Z,986.93
2018-05-08T10:37:46.744Z,986.95
2018-05-08T10:38:46.909Z,986.92
2018-05-08T10:39:47.046Z,986.91
2018-05-08T10:40:47.196Z,986.93
2018-05-08T10:41:47.358Z,986.89
2018-05-08T10:42:47.536Z,987.02
2018-05-08T10:43:47.636Z,987.36
2018-05-08T10:44:47.795Z,987.15
2018-05-08T10:45:47.939Z,986.85
2018-05-08T10:46:48.085Z,986.84
2018-05-08T10:47:48.249Z,986.86
2018-05-08T10:48:48.371Z,986.81
2018-05-08T10:49:48.515Z,986.75
2018-05-08T10:50:48.667Z,986.71
2018-05-08T10:51:48.791Z,986.65
2018-05-08T10:52:48.940Z,986.61
2018-05-08T10:53:49.105Z,986.66
2018-05-08T10:54:49.246Z,986.68
2018-05-08T10:55:49.399Z,986.70
2018-05-08T10:56:49.536Z,986.65
2018-05-08T10:57:49.712Z,986.65
2018-05-08T10:58:49.857Z,986.65
2018-05-08T10:59:49.988Z,986.59
2018-05-08T11:00:50.136Z,986.56
2018-05-08T11:01:50.366Z,986.58
2018-05-08T11:02:50.424Z,986.56
2018-05-08T11:03:50.562Z,986.56
2018-05-08T11:04:50.709Z,986.56
2018-05-08T11:05:50.852Z,986.53
2018-05-08T11:06:50.993Z,986.48
2018-05-08T11:07:51.131Z,986.54
2018-05-08T11:08:51.272Z,986.44
2018-05-08T11:09:51.416Z,986.48
2018-05-08T11:10:51.563Z,986.43
2018-05-08T11:11:51.705Z,986.44
2018-05-08T11:12:51.847Z,986.44
2018-05-08T11:13:51.991Z,986.42
2018-05-08T11:14:52.134Z,986.43
2018-05-08T11:15:52.275Z,986.38
2018-05-08T11:16:52.418Z,986.40
2018-05-08T11:17:52.584Z,986.41
2018-05-08T11:18:52.726Z,986.46
2018-05-08T11:19:52.870Z,986.44
2018-05-08T11:20:53.008Z,986.43
2018-05-08T11:21:53.157Z,986.37
2018-05-08T11:22:53.297Z,986.36
2018-05-08T11:23:53.447Z,986.35
2018-05-08T11:24:53.585Z,986.32
2018-05-08T11:25:53.733Z,986.31
2018-05-08T11:26:53.874Z,986.32
2018-05-08T11:27:54.019Z,986.31
2018-05-08T11:28:54.161Z,986.29
2018-05-08T11:29:54.313Z,986.27
2018-05-08T11:30:54.455Z,986.22
2018-05-08T11:31:54.602Z,986.23
2018-05-08T11:32:54.740Z,986.25
2018-05-08T11:33:54.885Z,986.21
2018-05-08T11:34:55.025Z,986.24
2018-05-08T11:35:55.174Z,986.24
2018-05-08T11:36:55.319Z,986.23
2018-05-08T11:37:55.458Z,986.20
2018-05-08T11:38:55.609Z,986.19
2018-05-08T11:39:55.747Z,986.16
2018-05-08T11:40:55.888Z,986.13
2018-05-08T11:41:56.055Z,986.13
2018-05-08T11:42:56.200Z,986.13
2018-05-08T11:43:56.345Z,986.12
2018-05-08T11:44:56.492Z,986.13
2018-05-08T11:45:56.642Z,986.09
2018-05-08T11:46:56.782Z,986.07
2018-05-08T11:47:56.927Z,986.07
2018-05-08T11:48:57.077Z,986.01
2018-05-08T11:49:57.351Z,986.07
2018-05-08T11:50:57.361Z,986.05
2018-05-08T11:51:57.519Z,986.05
2018-05-08T11:52:57.643Z,986.05
2018-05-08T11:53:57.777Z,986.06
2018-05-08T11:54:57.938Z,986.08
2018-05-08T11:55:58.081Z,986.02
2018-05-08T11:56:58.250Z,986.01
2018-05-08T11:57:58.427Z,986.05
2018-05-08T11:58:58.572Z,986.02
2018-05-08T11:59:58.716Z,986.00
2018-05-08T12:00:58.927Z,986.03
2018-05-08T12:01:59.064Z,985.98
2018-05-08T12:02:59.202Z,985.95
2018-05-08T12:03:59.345Z,985.96
2018-05-08T12:04:59.497Z,985.94
2018-05-08T12:05:59.646Z,985.95
2018-05-08T12:06:59.791Z,985.89
2018-05-08T12:07:59.933Z,985.91
2018-05-08T12:09:00.106Z,985.93
2018-05-08T12:10:00.244Z,985.88
2018-05-08T12:11:00.391Z,985.83
2018-05-08T12:12:00.527Z,985.80
2018-05-08T12:13:00.694Z,985.85
2018-05-08T12:14:00.840Z,985.84
2018-05-08T12:15:00.978Z,985.87
2018-05-08T12:16:01.132Z,985.78
2018-05-08T12:17:01.277Z,985.81
2018-05-08T12:18:01.421Z,985.79
2018-05-08T12:19:01.565Z,985.79
2018-05-08T12:20:01.710Z,985.80
2018-05-08T12:21:01.855Z,985.77
2018-05-08T12:22:01.994Z,985.77
2018-05-08T12:23:02.133Z,985.72
2018-05-08T12:24:02.281Z,985.71
2018-05-08T12:25:02.467Z,985.72
2018-05-08T12:26:02.575Z,985.70
2018-05-08T12:27:02.719Z,985.67
2018-05-08T12:28:02.860Z,985.76
2018-05-08T12:29:03.031Z,985.70
2018-05-08T12:30:03.231Z,985.73
2018-05-08T12:31:03.254Z,985.72
2018-05-08T12:32:03.410Z,985.62